Hlavní strana
METAR-TAF:

METAR-TAF

Letiště :

Fort Wayne, Indiana, Spojené státy americké

zeměpisná šířka: 40-58-42N, zeměpisná délka: 085-11-43W, výška: 248 m

Aktuální stav počasí

Zpráva byla vytvořena před 47 minutami, v 19:54 UTC
Západní vítr 10 kt s nárazy do 18 kt
Teplota 13°C
Vlhkost vzduchu 44%
Tlak 1019 hPa
Viditelnost: 16.1 km
Skoro jasno ve výšce 25000 ft

METAR: KFWA 141954Z 26010G18KT 10SM FEW250 13/01 A3008 RMK AO2 SLP188 T01330006

Čas: 16:41 (20:41 UTC)

Předpověď počasí

Zpráva byla vytvořena před 3 hodinami a 9 minutami, v 17:32 UTC
Předpověď platná od 14 v 18 UTC do 15 v 18 UTC
Západní vítr 10 kt s nárazy do 18 kt
Viditelnost: 10 km
Jasno
Od 14 v 2300 UTC
Jihovýchodní vítr 3 kt
Viditelnost: 10 km
Jasno
Od 15 v 1400 UTC
Jižní vítr 12 kt s nárazy do 20 kt
Viditelnost: 10 km
Polojasno ve výšce 5000 ft

TAF: KFWA 141732Z 1418/1518 28010G18KT P6SM SKC FM142300 13003KT P6SM SKC FM151400 18012G20KT P6SM SCT050

Stav a předpovědi počasí z více než 4 000 letišť (zprávy METAR a TAF).

Červené a žluté tečky na mapě představují dostupné meteorologické stanice.

Když kurzor umístíte na tečku, zobrazí se název stanice.

Pak kliknutím zobrazíte stav a předpověď počasí.

Chcete-li změnit mapu, kliknutím na zelené tlačítko se znaménkem +mapu přiblížíte, kliknutím na zelené tlačítko se znaménkem – mapu oddálíte a kliknutím na zelené šipky přejdete na sousední mapy.


METAR-TAF: